Time;durP1;ratioP1;P1;durP2;ratioP2;P2;SDS_P1;SDS_P2;PMS_P1;PMS_P2;Temp;Humidity;BMP_temperature;BMP_pressure;BME280_temperature;BME280_humidity;BME280_pressure;Samples;Min_cycle;Max_cycle;Signal;HPM_P1;HPM_P2
2023/07/22 00:01:03;;;;;;;2.42;2.22;;;;;;;;;;5075960;28;20020;-22
2023/07/22 00:03:29;;;;;;;4.28;2.50;;;;;;;;;;5075923;28;20108;-22
2023/07/22 00:06:08;;;;;;;2.35;2.25;;;;;;;;;;5076194;28;20404;-22
2023/07/22 00:08:35;;;;;;;2.53;2.33;;;;;;;;;;5075571;28;20040;-22
2023/07/22 00:11:01;;;;;;;4.63;2.47;;;;;;;;;;5075949;28;20095;-22
2023/07/22 00:13:27;;;;;;;2.60;2.40;;;;;;;;;;5075214;28;20032;-24
2023/07/22 00:15:54;;;;;;;2.65;2.45;;;;;;;;;;5076178;28;20398;-23
2023/07/22 00:18:20;;;;;;;3.78;3.47;;;;;;;;;;5075601;28;20477;-23
2023/07/22 00:20:46;;;;;;;2.92;2.72;;;;;;;;;;5075576;28;20354;-23
2023/07/22 00:23:12;;;;;;;4.70;3.03;;;;;;;;;;5075590;28;20029;-23
2023/07/22 00:25:39;;;;;;;2.67;2.47;;;;;;;;;;5075702;28;20025;-23
2023/07/22 00:28:05;;;;;;;4.05;2.55;;;;;;;;;;5075461;28;20112;-23
2023/07/22 00:30:31;;;;;;;2.25;2.13;;;;;;;;;;5075336;28;20051;-23
2023/07/22 00:32:57;;;;;;;3.15;2.72;;;;;;;;;;5075574;28;20549;-22
2023/07/22 00:35:23;;;;;;;4.25;2.38;;;;;;;;;;5075296;28;20444;-21
2023/07/22 00:37:49;;;;;;;3.42;2.40;;;;;;;;;;5075184;28;20036;-22
2023/07/22 00:40:16;;;;;;;3.05;2.50;;;;;;;;;;5075249;28;20025;-21
2023/07/22 00:42:43;;;;;;;2.15;2.00;;;;;;;;;;5057619;28;20537;-21
2023/07/22 00:45:09;;;;;;;2.70;2.30;;;;;;;;;;5075099;28;20082;-23
2023/07/22 00:47:36;;;;;;;3.30;2.78;;;;;;;;;;5075258;28;20074;-23
2023/07/22 00:50:07;;;;;;;2.55;2.35;;;;;;;;;;5075046;28;20039;-22
2023/07/22 00:52:36;;;;;;;2.97;2.75;;;;;;;;;;5075712;28;20021;-22
2023/07/22 00:55:03;;;;;;;2.30;2.10;;;;;;;;;;5075242;28;20344;-22
2023/07/22 00:57:29;;;;;;;3.13;2.25;;;;;;;;;;5074985;28;20044;-22
2023/07/22 00:59:55;;;;;;;2.65;2.28;;;;;;;;;;5075174;28;20031;-23
2023/07/22 01:02:23;;;;;;;2.35;2.10;;;;;;;;;;5057328;28;20459;-21
2023/07/22 01:04:49;;;;;;;2.80;2.60;;;;;;;;;;5074842;28;20025;-22
2023/07/22 01:07:16;;;;;;;3.13;2.60;;;;;;;;;;5074541;28;20025;-24
2023/07/22 01:09:42;;;;;;;4.10;2.38;;;;;;;;;;5075013;28;20032;-24
2023/07/22 01:12:09;;;;;;;2.78;2.58;;;;;;;;;;5074950;28;20032;-23
2023/07/22 01:14:36;;;;;;;3.55;2.65;;;;;;;;;;5074749;28;20020;-23
2023/07/22 01:17:03;;;;;;;2.45;2.28;;;;;;;;;;5074613;28;20021;-22
2023/07/22 01:19:30;;;;;;;2.95;2.65;;;;;;;;;;5074668;28;20111;-22
2023/07/22 01:21:57;;;;;;;7.47;2.85;;;;;;;;;;5074913;28;20336;-23
2023/07/22 01:24:23;;;;;;;2.70;2.20;;;;;;;;;;5056618;28;20024;-22
2023/07/22 01:26:49;;;;;;;2.65;2.42;;;;;;;;;;5074035;28;20032;-23
2023/07/22 01:29:15;;;;;;;2.85;2.40;;;;;;;;;;5074883;28;20388;-22
2023/07/22 01:31:41;;;;;;;3.03;2.67;;;;;;;;;;5074474;28;20028;-23
2023/07/22 01:34:08;;;;;;;3.20;2.80;;;;;;;;;;5074570;28;20209;-22
2023/07/22 01:36:34;;;;;;;4.13;2.00;;;;;;;;;;5074477;28;20025;-22
2023/07/22 01:39:00;;;;;;;3.03;2.83;;;;;;;;;;5074457;28;20033;-22
2023/07/22 01:41:26;;;;;;;2.53;2.33;;;;;;;;;;5074697;28;20044;-23
2023/07/22 01:43:52;;;;;;;3.03;2.22;;;;;;;;;;5074686;28;20078;-22
2023/07/22 01:46:18;;;;;;;2.55;2.30;;;;;;;;;;5074383;28;20025;-22
2023/07/22 01:48:44;;;;;;;2.75;2.50;;;;;;;;;;5074680;28;20025;-23
2023/07/22 01:51:11;;;;;;;2.55;2.38;;;;;;;;;;5074334;28;20063;-21
2023/07/22 01:53:37;;;;;;;3.50;2.30;;;;;;;;;;5074387;28;20408;-23
2023/07/22 01:56:04;;;;;;;2.58;2.38;;;;;;;;;;5056727;28;20368;-21
2023/07/22 01:58:31;;;;;;;4.75;2.90;;;;;;;;;;5040259;28;20035;-23
2023/07/22 02:00:57;;;;;;;2.85;2.55;;;;;;;;;;5074810;28;20024;-22
2023/07/22 02:03:23;;;;;;;2.47;2.38;;;;;;;;;;5074267;28;20040;-22
2023/07/22 02:05:49;;;;;;;2.50;2.30;;;;;;;;;;5074465;28;20024;-23
2023/07/22 02:08:15;;;;;;;2.55;2.35;;;;;;;;;;5073501;28;20049;-22
2023/07/22 02:10:41;;;;;;;2.75;2.55;;;;;;;;;;5055648;28;20039;-23
2023/07/22 02:13:07;;;;;;;2.55;2.35;;;;;;;;;;5073130;28;20028;-22
2023/07/22 02:15:34;;;;;;;3.20;2.60;;;;;;;;;;5073159;28;20501;-22
2023/07/22 02:18:00;;;;;;;2.15;2.05;;;;;;;;;;5073317;28;20059;-22
2023/07/22 02:20:28;;;;;;;2.42;2.33;;;;;;;;;;5073127;28;20103;-21
2023/07/22 02:22:55;;;;;;;2.20;2.10;;;;;;;;;;5073010;28;20488;-22
2023/07/22 02:25:22;;;;;;;2.72;2.45;;;;;;;;;;5073235;28;20032;-22
2023/07/22 02:27:48;;;;;;;2.72;2.53;;;;;;;;;;5073226;28;20363;-22
2023/07/22 02:30:14;;;;;;;2.00;1.90;;;;;;;;;;5072964;28;20036;-22
2023/07/22 02:32:40;;;;;;;2.88;2.50;;;;;;;;;;5072855;28;20020;-22
2023/07/22 02:35:07;;;;;;;2.13;2.03;;;;;;;;;;5055321;28;20020;-22
2023/07/22 02:37:34;;;;;;;2.58;2.38;;;;;;;;;;5075304;28;20021;-24
2023/07/22 02:40:00;;;;;;;2.65;2.45;;;;;;;;;;5076601;28;20024;-23
2023/07/22 02:42:26;;;;;;;2.75;2.55;;;;;;;;;;5076858;28;20100;-24
2023/07/22 02:44:52;;;;;;;2.92;2.33;;;;;;;;;;5076267;28;20025;-23
2023/07/22 02:47:18;;;;;;;3.05;2.67;;;;;;;;;;5076439;28;20070;-23
2023/07/22 02:49:45;;;;;;;3.30;2.22;;;;;;;;;;5076181;28;20410;-22
2023/07/22 02:52:11;;;;;;;2.67;2.47;;;;;;;;;;5076104;28;20039;-22
2023/07/22 02:54:40;;;;;;;2.47;2.28;;;;;;;;;;5076439;28;20020;-23
2023/07/22 02:57:07;;;;;;;2.92;2.72;;;;;;;;;;5076230;28;20012;-22
2023/07/22 02:59:33;;;;;;;2.70;2.50;;;;;;;;;;5076065;28;20016;-23
2023/07/22 03:01:59;;;;;;;2.85;2.53;;;;;;;;;;5076291;28;20086;-22
2023/07/22 03:04:25;;;;;;;2.80;2.60;;;;;;;;;;5075986;28;20051;-22
2023/07/22 03:06:52;;;;;;;2.17;2.08;;;;;;;;;;5076146;28;20116;-23
2023/07/22 03:09:18;;;;;;;2.55;2.35;;;;;;;;;;5032697;28;1272915;-21
2023/07/22 03:11:44;;;;;;;2.40;2.20;;;;;;;;;;5076877;28;20060;-23
2023/07/22 03:14:10;;;;;;;3.13;2.85;;;;;;;;;;5076859;28;20029;-23
2023/07/22 03:16:36;;;;;;;2.63;2.42;;;;;;;;;;5076896;28;20028;-23
2023/07/22 03:19:02;;;;;;;3.22;2.88;;;;;;;;;;5077026;28;20033;-21
2023/07/22 03:21:29;;;;;;;3.00;2.80;;;;;;;;;;5076816;28;20032;-21
2023/07/22 03:23:55;;;;;;;2.72;2.63;;;;;;;;;;5077022;28;20108;-21
2023/07/22 03:26:21;;;;;;;2.42;2.22;;;;;;;;;;5058969;28;20081;-21
2023/07/22 03:28:47;;;;;;;3.10;2.55;;;;;;;;;;5076881;28;20077;-23
2023/07/22 03:31:14;;;;;;;2.42;2.22;;;;;;;;;;5059125;28;20029;-22
2023/07/22 03:33:41;;;;;;;2.70;2.50;;;;;;;;;;5076711;28;20020;-23
2023/07/22 03:36:07;;;;;;;2.60;2.40;;;;;;;;;;5076520;28;20396;-22
2023/07/22 03:38:33;;;;;;;2.58;2.38;;;;;;;;;;5076402;28;20060;-22
2023/07/22 03:40:59;;;;;;;2.70;2.50;;;;;;;;;;5076683;28;20108;-28
2023/07/22 03:43:25;;;;;;;2.60;2.40;;;;;;;;;;5076353;28;20500;-22
2023/07/22 03:45:51;;;;;;;2.83;2.63;;;;;;;;;;5076571;28;20063;-22
2023/07/22 03:48:17;;;;;;;3.20;2.38;;;;;;;;;;5075331;28;20032;-22
2023/07/22 03:50:43;;;;;;;2.55;2.35;;;;;;;;;;5076474;28;20109;-24
2023/07/22 03:53:10;;;;;;;2.75;2.55;;;;;;;;;;5058483;28;20035;-24
2023/07/22 03:55:36;;;;;;;2.55;2.35;;;;;;;;;;5076846;28;20017;-23
2023/07/22 03:58:02;;;;;;;2.40;2.30;;;;;;;;;;5075996;28;20020;-22
2023/07/22 04:00:28;;;;;;;2.75;2.55;;;;;;;;;;5076043;28;20039;-22
2023/07/22 04:02:54;;;;;;;2.50;2.30;;;;;;;;;;5076306;28;20020;-21
2023/07/22 04:05:20;;;;;;;2.85;2.65;;;;;;;;;;5076111;28;20033;-22
2023/07/22 04:07:46;;;;;;;3.33;3.03;;;;;;;;;;5075825;28;20059;-22
2023/07/22 04:10:12;;;;;;;2.17;2.08;;;;;;;;;;5076093;28;20043;-23
2023/07/22 04:12:39;;;;;;;2.70;2.45;;;;;;;;;;5075642;28;20032;-23
2023/07/22 04:15:05;;;;;;;2.42;2.33;;;;;;;;;;5075688;28;20021;-21
2023/07/22 04:17:31;;;;;;;2.42;2.28;;;;;;;;;;5057955;28;20021;-23
2023/07/22 04:19:57;;;;;;;2.40;2.28;;;;;;;;;;5076096;28;20012;-22
2023/07/22 04:22:23;;;;;;;2.35;2.20;;;;;;;;;;5075560;28;20376;-21
2023/07/22 04:24:49;;;;;;;2.55;2.35;;;;;;;;;;5075286;28;20052;-22
2023/07/22 04:27:16;;;;;;;2.60;2.40;;;;;;;;;;5075383;28;20091;-22
2023/07/22 04:29:42;;;;;;;2.28;2.08;;;;;;;;;;5075384;28;20436;-22
2023/07/22 04:32:08;;;;;;;2.40;2.30;;;;;;;;;;5075470;28;20029;-23
2023/07/22 04:34:34;;;;;;;2.38;2.17;;;;;;;;;;5057719;28;20059;-21
2023/07/22 04:37:01;;;;;;;2.30;2.10;;;;;;;;;;5075570;28;20028;-22
2023/07/22 04:39:27;;;;;;;2.40;2.30;;;;;;;;;;5075190;28;20028;-23
2023/07/22 04:41:54;;;;;;;2.25;2.15;;;;;;;;;;5075168;28;20059;-22
2023/07/22 04:44:20;;;;;;;2.10;2.00;;;;;;;;;;5057580;28;20028;-22
2023/07/22 04:46:47;;;;;;;2.03;1.92;;;;;;;;;;5074875;28;20089;-21
2023/07/22 04:49:13;;;;;;;2.67;2.47;;;;;;;;;;5074948;28;20108;-22
2023/07/22 04:51:40;;;;;;;2.78;2.35;;;;;;;;;;5074834;28;20063;-23
2023/07/22 04:54:06;;;;;;;2.25;2.15;;;;;;;;;;5074868;28;20025;-22
2023/07/22 04:56:32;;;;;;;2.85;2.65;;;;;;;;;;5074742;28;20388;-23
2023/07/22 04:58:58;;;;;;;2.67;2.58;;;;;;;;;;5074979;28;20100;-23
2023/07/22 05:01:25;;;;;;;2.75;2.63;;;;;;;;;;5075122;28;20477;-22
2023/07/22 05:03:54;;;;;;;2.47;2.28;;;;;;;;;;5074863;28;20017;-27
2023/07/22 05:06:21;;;;;;;2.50;2.35;;;;;;;;;;5074991;28;20021;-21
2023/07/22 05:08:47;;;;;;;2.70;2.30;;;;;;;;;;5074561;28;20052;-23
2023/07/22 05:11:13;;;;;;;3.20;2.90;;;;;;;;;;5074654;28;20036;-22
2023/07/22 05:13:39;;;;;;;1.90;1.80;;;;;;;;;;5074958;28;20031;-22
2023/07/22 05:16:05;;;;;;;2.95;2.30;;;;;;;;;;5074864;28;20037;-23
2023/07/22 05:18:31;;;;;;;2.60;2.40;;;;;;;;;;5056855;28;20355;-21
2023/07/22 05:20:57;;;;;;;2.70;2.50;;;;;;;;;;5074842;28;20017;-21
2023/07/22 05:23:24;;;;;;;4.97;2.45;;;;;;;;;;5074609;28;20028;-22
2023/07/22 05:25:53;;;;;;;2.60;2.38;;;;;;;;;;5074816;28;20024;-22
2023/07/22 05:28:20;;;;;;;2.63;2.50;;;;;;;;;;5074517;28;20056;-22
2023/07/22 05:30:46;;;;;;;2.88;2.67;;;;;;;;;;5074515;28;20142;-25
2023/07/22 05:33:12;;;;;;;2.20;2.10;;;;;;;;;;5056746;28;20085;-22
2023/07/22 05:35:38;;;;;;;2.72;2.40;;;;;;;;;;5074759;28;20513;-22
2023/07/22 05:38:04;;;;;;;2.70;2.50;;;;;;;;;;5074609;28;20021;-23
2023/07/22 05:40:31;;;;;;;2.50;2.40;;;;;;;;;;5074436;28;20024;-22
2023/07/22 05:42:57;;;;;;;2.63;2.42;;;;;;;;;;5074675;28;20029;-23
2023/07/22 05:45:23;;;;;;;3.22;2.92;;;;;;;;;;5074399;28;20116;-23
2023/07/22 05:47:49;;;;;;;2.45;2.25;;;;;;;;;;5074186;28;20086;-22
2023/07/22 05:50:15;;;;;;;2.72;2.53;;;;;;;;;;5056691;28;20028;-22
2023/07/22 05:52:41;;;;;;;2.50;2.30;;;;;;;;;;5074202;28;20090;-23
2023/07/22 05:55:08;;;;;;;2.60;2.50;;;;;;;;;;5074393;28;20021;-22
2023/07/22 05:57:34;;;;;;;2.75;2.55;;;;;;;;;;5074072;28;20031;-22
2023/07/22 06:00:01;;;;;;;2.65;2.45;;;;;;;;;;5074393;28;20040;-22
2023/07/22 06:02:28;;;;;;;2.72;2.53;;;;;;;;;;5074348;28;20053;-22
2023/07/22 06:04:54;;;;;;;4.32;2.47;;;;;;;;;;5074037;28;20032;-23
2023/07/22 06:07:20;;;;;;;2.78;2.58;;;;;;;;;;5073728;28;20103;-22
2023/07/22 06:09:46;;;;;;;3.00;2.50;;;;;;;;;;5074361;28;20058;-25
2023/07/22 06:12:12;;;;;;;2.67;2.50;;;;;;;;;;5076411;28;20418;-22
2023/07/22 06:14:39;;;;;;;2.80;2.60;;;;;;;;;;5078147;28;20325;-23
2023/07/22 06:17:05;;;;;;;3.08;2.88;;;;;;;;;;5077968;28;20435;-22
2023/07/22 06:19:31;;;;;;;4.05;3.13;;;;;;;;;;5078041;28;20020;-22
2023/07/22 06:21:57;;;;;;;2.80;2.60;;;;;;;;;;5078237;28;20036;-23
2023/07/22 06:24:23;;;;;;;2.72;2.53;;;;;;;;;;5077734;28;20029;-23
2023/07/22 06:26:49;;;;;;;2.88;2.67;;;;;;;;;;5077564;28;20104;-22
2023/07/22 06:29:15;;;;;;;2.83;2.63;;;;;;;;;;5077614;28;20056;-22
2023/07/22 06:31:41;;;;;;;2.63;2.42;;;;;;;;;;5077526;28;20052;-22
2023/07/22 06:34:08;;;;;;;2.67;2.47;;;;;;;;;;5077742;28;20063;-22
2023/07/22 06:36:34;;;;;;;2.72;2.53;;;;;;;;;;5077374;28;20059;-21
2023/07/22 06:39:00;;;;;;;3.13;2.80;;;;;;;;;;5077301;28;20499;-22
2023/07/22 06:41:26;;;;;;;3.63;2.47;;;;;;;;;;5077340;28;20021;-22
2023/07/22 06:43:52;;;;;;;2.85;2.60;;;;;;;;;;5077283;28;20021;-23
2023/07/22 06:46:18;;;;;;;3.10;2.58;;;;;;;;;;5077417;28;20033;-22
2023/07/22 06:48:44;;;;;;;3.10;2.90;;;;;;;;;;5077345;28;20035;-22
2023/07/22 06:51:10;;;;;;;2.25;2.15;;;;;;;;;;5077101;28;20024;-23
2023/07/22 06:53:36;;;;;;;2.70;2.50;;;;;;;;;;5077172;28;20016;-21
2023/07/22 06:56:03;;;;;;;3.15;2.85;;;;;;;;;;5077329;28;20027;-21
2023/07/22 06:58:29;;;;;;;3.33;3.13;;;;;;;;;;5076932;28;20519;-22
2023/07/22 07:00:55;;;;;;;2.58;2.45;;;;;;;;;;5077172;28;20024;-21
2023/07/22 07:03:22;;;;;;;2.72;2.53;;;;;;;;;;5077526;28;20040;-23
2023/07/22 07:05:55;;;;;;;2.88;2.63;;;;;;;;;;5076962;28;20024;-21
2023/07/22 07:08:21;;;;;;;2.88;2.67;;;;;;;;;;5076916;28;20135;-22
2023/07/22 07:10:47;;;;;;;2.65;2.45;;;;;;;;;;5077142;28;20043;-23
2023/07/22 07:13:13;;;;;;;3.25;2.97;;;;;;;;;;5076984;28;20086;-23
2023/07/22 07:15:40;;;;;;;3.00;2.80;;;;;;;;;;5076903;28;20082;-22
2023/07/22 07:18:06;;;;;;;3.05;2.85;;;;;;;;;;5076700;28;20055;-23
2023/07/22 07:20:32;;;;;;;2.90;2.70;;;;;;;;;;5076867;28;20545;-22
2023/07/22 07:22:58;;;;;;;4.70;2.28;;;;;;;;;;5075629;28;20386;-22
2023/07/22 07:25:24;;;;;;;3.28;3.08;;;;;;;;;;5077751;28;20100;-21
2023/07/22 07:27:50;;;;;;;2.45;2.25;;;;;;;;;;5076434;28;20444;-22
2023/07/22 07:30:16;;;;;;;3.00;2.63;;;;;;;;;;5050702;28;20312;-22
2023/07/22 07:32:42;;;;;;;3.10;2.90;;;;;;;;;;5076612;28;20095;-22
2023/07/22 07:35:09;;;;;;;5.43;2.65;;;;;;;;;;5076386;28;20063;-23
2023/07/22 07:37:35;;;;;;;3.05;2.80;;;;;;;;;;5076491;28;20032;-21
2023/07/22 07:40:01;;;;;;;2.90;2.70;;;;;;;;;;5076617;28;20024;-21
2023/07/22 07:42:27;;;;;;;2.90;2.70;;;;;;;;;;5076567;28;20054;-23
2023/07/22 07:44:54;;;;;;;2.70;2.45;;;;;;;;;;5076151;28;20441;-21
2023/07/22 07:47:20;;;;;;;2.80;2.60;;;;;;;;;;5076016;28;20059;-22
2023/07/22 07:49:46;;;;;;;2.75;2.65;;;;;;;;;;5076190;28;20039;-23
2023/07/22 07:52:12;;;;;;;2.67;2.47;;;;;;;;;;5075826;28;20108;-22
2023/07/22 07:54:38;;;;;;;3.72;2.83;;;;;;;;;;5076168;28;20021;-23
2023/07/22 07:57:05;;;;;;;2.40;2.30;;;;;;;;;;5076111;28;20107;-22
2023/07/22 07:59:31;;;;;;;2.42;2.33;;;;;;;;;;5075850;28;20094;-21
2023/07/22 08:01:57;;;;;;;2.67;2.47;;;;;;;;;;5075802;28;20078;-24
2023/07/22 08:04:23;;;;;;;2.67;2.50;;;;;;;;;;5075663;28;20035;-22
2023/07/22 08:06:49;;;;;;;2.60;2.40;;;;;;;;;;5075801;28;20016;-23
2023/07/22 08:09:19;;;;;;;2.83;2.63;;;;;;;;;;5067176;28;20048;-22
2023/07/22 08:11:46;;;;;;;2.28;2.17;;;;;;;;;;5075465;28;20103;-23
2023/07/22 08:14:12;;;;;;;2.72;2.53;;;;;;;;;;5076266;28;20436;-21
2023/07/22 08:16:38;;;;;;;3.30;2.67;;;;;;;;;;5075811;28;20464;-22
2023/07/22 08:19:04;;;;;;;2.47;2.38;;;;;;;;;;5075378;28;20494;-24
2023/07/22 08:21:30;;;;;;;2.90;2.70;;;;;;;;;;5075269;28;20436;-23
2023/07/22 08:23:57;;;;;;;2.80;2.58;;;;;;;;;;5075414;28;20017;-23
2023/07/22 08:26:23;;;;;;;2.78;2.50;;;;;;;;;;5075144;28;20021;-23
2023/07/22 08:28:49;;;;;;;2.10;2.00;;;;;;;;;;5075721;28;20443;-23
2023/07/22 08:31:16;;;;;;;2.13;2.03;;;;;;;;;;5066587;28;20089;-22
2023/07/22 08:33:42;;;;;;;2.83;2.70;;;;;;;;;;5074844;28;20025;-21
2023/07/22 08:36:09;;;;;;;2.33;2.15;;;;;;;;;;5074980;28;20024;-22
2023/07/22 08:38:35;;;;;;;3.33;2.35;;;;;;;;;;5074973;28;20025;-22
2023/07/22 08:41:01;;;;;;;2.67;2.47;;;;;;;;;;5074850;28;20024;-22
2023/07/22 08:43:28;;;;;;;2.78;2.55;;;;;;;;;;5074840;28;20025;-21
2023/07/22 08:45:55;;;;;;;2.83;2.63;;;;;;;;;;5075036;28;20036;-21
2023/07/22 08:48:22;;;;;;;2.75;2.13;;;;;;;;;;5074759;28;20028;-22
2023/07/22 08:50:48;;;;;;;2.53;2.33;;;;;;;;;;5075026;28;20116;-21
2023/07/22 08:53:15;;;;;;;2.33;2.22;;;;;;;;;;5074915;28;20029;-22
2023/07/22 08:55:42;;;;;;;2.22;2.13;;;;;;;;;;5074586;28;20032;-22
2023/07/22 08:58:11;;;;;;;2.90;2.70;;;;;;;;;;5074635;28;20050;-21
2023/07/22 09:00:39;;;;;;;2.40;2.30;;;;;;;;;;5074598;28;20020;-23
2023/07/22 09:03:05;;;;;;;2.72;2.53;;;;;;;;;;5075236;28;20499;-22
2023/07/22 09:05:33;;;;;;;3.17;2.97;;;;;;;;;;5074803;28;20325;-23
2023/07/22 09:07:59;;;;;;;2.42;2.22;;;;;;;;;;5074363;28;20110;-22
2023/07/22 09:10:27;;;;;;;2.80;2.60;;;;;;;;;;5074776;28;20448;-23
2023/07/22 09:12:53;;;;;;;2.78;2.35;;;;;;;;;;5056646;28;20044;-23
2023/07/22 09:15:20;;;;;;;2.85;2.70;;;;;;;;;;5074562;28;20039;-21
2023/07/22 09:17:47;;;;;;;2.45;2.33;;;;;;;;;;5074489;28;20048;-22
2023/07/22 09:20:14;;;;;;;2.38;2.28;;;;;;;;;;5075073;28;20032;-22
2023/07/22 09:22:50;;;;;;;2.55;2.45;;;;;;;;;;5074450;28;20443;-23
2023/07/22 09:25:16;;;;;;;2.45;2.35;;;;;;;;;;5074820;28;20411;-23
2023/07/22 09:27:43;;;;;;;3.58;3.30;;;;;;;;;;5074193;28;20025;-23
2023/07/22 09:30:25;;;;;;;2.20;2.10;;;;;;;;;;5074607;28;20043;-21
2023/07/22 09:32:52;;;;;;;2.85;2.63;;;;;;;;;;5074158;28;20021;-22
2023/07/22 09:35:19;;;;;;;2.75;2.55;;;;;;;;;;5074180;28;20060;-22
2023/07/22 09:37:45;;;;;;;2.83;2.63;;;;;;;;;;5074265;28;20150;-23
2023/07/22 09:40:16;;;;;;;2.42;2.25;;;;;;;;;;5074430;28;20028;-21
2023/07/22 09:42:53;;;;;;;3.03;2.83;;;;;;;;;;5074522;28;20067;-28
2023/07/22 09:45:21;;;;;;;2.40;2.30;;;;;;;;;;5074463;28;20029;-23
2023/07/22 09:47:49;;;;;;;2.75;2.55;;;;;;;;;;5077506;28;20028;-22
2023/07/22 09:50:18;;;;;;;2.97;2.78;;;;;;;;;;5070048;28;20459;-22
2023/07/22 09:52:46;;;;;;;2.75;2.65;;;;;;;;;;5078502;28;20028;-21
2023/07/22 09:55:12;;;;;;;2.20;2.10;;;;;;;;;;5078371;28;20347;-21
2023/07/22 09:57:42;;;;;;;3.00;2.83;;;;;;;;;;5078247;28;20324;-23
2023/07/22 10:00:09;;;;;;;3.10;2.90;;;;;;;;;;5078350;28;20124;-22
2023/07/22 10:02:36;;;;;;;2.80;2.60;;;;;;;;;;5078158;28;20033;-22
2023/07/22 10:05:03;;;;;;;3.15;2.95;;;;;;;;;;5078336;28;20028;-21
2023/07/22 10:07:30;;;;;;;3.00;2.75;;;;;;;;;;5077836;28;20036;-24
2023/07/22 10:09:57;;;;;;;3.72;3.00;;;;;;;;;;5060334;28;20448;-23
2023/07/22 10:12:23;;;;;;;3.10;2.90;;;;;;;;;;5078282;28;20046;-21
2023/07/22 10:14:50;;;;;;;2.88;2.67;;;;;;;;;;5078011;28;20029;-23
2023/07/22 10:17:17;;;;;;;2.90;2.70;;;;;;;;;;5043723;28;20025;-22
2023/07/22 10:19:44;;;;;;;3.17;2.97;;;;;;;;;;5077984;28;20110;-23
2023/07/22 10:22:10;;;;;;;3.30;3.10;;;;;;;;;;5077982;28;20063;-22
2023/07/22 10:24:36;;;;;;;2.50;2.35;;;;;;;;;;5078065;28;20111;-23
2023/07/22 10:27:03;;;;;;;2.80;2.60;;;;;;;;;;5077718;28;20094;-23
2023/07/22 10:29:30;;;;;;;2.95;2.75;;;;;;;;;;5077751;28;20078;-22
2023/07/22 10:31:56;;;;;;;3.28;3.05;;;;;;;;;;5078215;28;20025;-22
2023/07/22 10:34:22;;;;;;;4.00;2.38;;;;;;;;;;5077674;28;20032;-22
2023/07/22 10:36:48;;;;;;;3.15;2.95;;;;;;;;;;5077785;28;20035;-23
2023/07/22 10:39:26;;;;;;;2.95;2.85;;;;;;;;;;5077527;28;20033;-22
2023/07/22 10:41:58;;;;;;;2.58;2.38;;;;;;;;;;5077765;28;20031;-21
2023/07/22 10:44:26;;;;;;;2.85;2.65;;;;;;;;;;5077779;28;20082;-21
2023/07/22 10:46:59;;;;;;;3.72;3.42;;;;;;;;;;5077642;28;20033;-23
2023/07/22 10:49:28;;;;;;;2.72;2.63;;;;;;;;;;5077647;28;20024;-22
2023/07/22 10:51:54;;;;;;;2.65;2.55;;;;;;;;;;5077812;28;20071;-22
2023/07/22 10:54:36;;;;;;;3.08;2.88;;;;;;;;;;5077602;28;20099;-21
2023/07/22 10:57:29;;;;;;;3.20;3.00;;;;;;;;;;5077202;28;20086;-22
2023/07/22 10:59:56;;;;;;;3.20;3.00;;;;;;;;;;5072808;28;20363;-23
2023/07/22 11:02:30;;;;;;;4.10;3.70;;;;;;;;;;5077044;28;20028;-23
2023/07/22 11:04:59;;;;;;;4.03;3.70;;;;;;;;;;5077232;28;20020;-22
2023/07/22 11:07:43;;;;;;;6.22;3.80;;;;;;;;;;5076753;28;20025;-23
2023/07/22 11:10:16;;;;;;;3.35;3.05;;;;;;;;;;5077395;28;20153;-23
2023/07/22 11:12:44;;;;;;;3.10;2.90;;;;;;;;;;5076962;28;20025;-22
2023/07/22 11:15:10;;;;;;;2.97;2.78;;;;;;;;;;5077115;28;20102;-22
2023/07/22 11:17:37;;;;;;;3.67;3.45;;;;;;;;;;5077021;28;20351;-22
2023/07/22 11:20:04;;;;;;;3.60;3.22;;;;;;;;;;5076896;28;20021;-22
2023/07/22 11:22:30;;;;;;;3.80;3.60;;;;;;;;;;5077347;28;20032;-23
2023/07/22 11:24:58;;;;;;;6.55;4.57;;;;;;;;;;5076678;28;20033;-23
2023/07/22 11:27:24;;;;;;;3.80;3.50;;;;;;;;;;5076610;28;20131;-23
2023/07/22 11:29:50;;;;;;;3.47;3.17;;;;;;;;;;5077006;28;20032;-23
2023/07/22 11:32:18;;;;;;;4.07;3.60;;;;;;;;;;5076535;28;20035;-21
2023/07/22 11:34:47;;;;;;;4.35;3.97;;;;;;;;;;5076574;28;20121;-22
2023/07/22 11:37:14;;;;;;;4.75;4.35;;;;;;;;;;5076448;28;20391;-22
2023/07/22 11:39:42;;;;;;;5.53;3.85;;;;;;;;;;5076754;28;20025;-22
2023/07/22 11:42:08;;;;;;;3.88;3.58;;;;;;;;;;5076461;28;20086;-23
2023/07/22 11:44:34;;;;;;;4.07;3.65;;;;;;;;;;5076372;28;20035;-23
2023/07/22 11:47:01;;;;;;;3.97;3.55;;;;;;;;;;5076755;28;20020;-22
2023/07/22 11:49:34;;;;;;;4.28;3.35;;;;;;;;;;5076561;28;20070;-23
2023/07/22 11:52:01;;;;;;;3.70;2.83;;;;;;;;;;5076163;28;20232;-21
2023/07/22 11:54:28;;;;;;;3.63;2.80;;;;;;;;;;5076472;28;20016;-22
2023/07/22 11:56:55;;;;;;;3.28;2.97;;;;;;;;;;5075989;28;20024;-27
2023/07/22 11:59:34;;;;;;;4.10;3.80;;;;;;;;;;5076091;28;20074;-22
2023/07/22 12:02:01;;;;;;;3.40;3.20;;;;;;;;;;5076262;28;20032;-22
2023/07/22 12:04:27;;;;;;;4.07;3.30;;;;;;;;;;5076237;28;20099;-23
2023/07/22 12:06:53;;;;;;;3.03;2.83;;;;;;;;;;5075819;28;20030;-22
2023/07/22 12:09:20;;;;;;;3.45;3.25;;;;;;;;;;5075210;28;20041;-22
2023/07/22 12:11:48;;;;;;;3.70;3.42;;;;;;;;;;5075826;28;20020;-22
2023/07/22 12:14:15;;;;;;;3.30;3.10;;;;;;;;;;5075756;28;20024;-23
2023/07/22 12:16:41;;;;;;;3.00;2.90;;;;;;;;;;5075702;28;20027;-23
2023/07/22 12:19:09;;;;;;;3.08;2.80;;;;;;;;;;5075943;28;20174;-22
2023/07/22 12:21:35;;;;;;;3.38;3.17;;;;;;;;;;5076102;28;20024;-22
2023/07/22 12:24:04;;;;;;;3.00;2.90;;;;;;;;;;5075637;28;20025;-23
2023/07/22 12:26:30;;;;;;;3.40;3.10;;;;;;;;;;5075722;28;20113;-21
2023/07/22 12:28:56;;;;;;;3.78;3.47;;;;;;;;;;5075557;28;20024;-24
2023/07/22 12:31:22;;;;;;;3.40;3.10;;;;;;;;;;5075625;28;20031;-23
2023/07/22 12:33:48;;;;;;;3.30;3.10;;;;;;;;;;5075823;28;20036;-23
2023/07/22 12:36:14;;;;;;;4.28;4.07;;;;;;;;;;5075227;28;20031;-22
2023/07/22 12:38:40;;;;;;;3.25;3.05;;;;;;;;;;5075280;28;20094;-22
2023/07/22 12:41:06;;;;;;;3.60;3.30;;;;;;;;;;5075271;28;20355;-22
2023/07/22 12:43:33;;;;;;;3.28;3.08;;;;;;;;;;5075171;28;20455;-23
2023/07/22 12:45:59;;;;;;;2.90;2.80;;;;;;;;;;5075509;28;20028;-22
2023/07/22 12:48:25;;;;;;;3.55;3.25;;;;;;;;;;5075054;28;20029;-22
2023/07/22 12:50:51;;;;;;;3.05;2.85;;;;;;;;;;5075019;28;20086;-23
2023/07/22 12:53:17;;;;;;;3.10;2.90;;;;;;;;;;5074890;28;20096;-23
2023/07/22 12:55:44;;;;;;;4.15;3.35;;;;;;;;;;5075019;28;20059;-22
2023/07/22 12:58:10;;;;;;;3.03;2.83;;;;;;;;;;5057272;28;20029;-21
2023/07/22 13:00:36;;;;;;;3.05;2.88;;;;;;;;;;5075236;28;20024;-22
2023/07/22 13:03:02;;;;;;;4.22;3.92;;;;;;;;;;5075181;28;20112;-22
2023/07/22 13:05:28;;;;;;;3.45;3.25;;;;;;;;;;5075022;28;20031;-21
2023/07/22 13:07:54;;;;;;;3.10;2.90;;;;;;;;;;5074711;28;20048;-22
2023/07/22 13:10:22;;;;;;;3.50;3.20;;;;;;;;;;5075075;28;20070;-23
2023/07/22 13:12:48;;;;;;;3.92;3.63;;;;;;;;;;5074845;28;20377;-23
2023/07/22 13:15:14;;;;;;;3.20;3.00;;;;;;;;;;5075045;28;20328;-23
2023/07/22 13:17:40;;;;;;;3.35;3.15;;;;;;;;;;5074920;28;20032;-23
2023/07/22 13:20:07;;;;;;;3.30;3.10;;;;;;;;;;5074832;28;20328;-23
2023/07/22 13:22:33;;;;;;;3.38;3.17;;;;;;;;;;5075277;28;20050;-22
2023/07/22 13:24:59;;;;;;;4.32;4.03;;;;;;;;;;5074592;28;20032;-23
2023/07/22 13:27:25;;;;;;;3.40;3.20;;;;;;;;;;5075045;28;20071;-24
2023/07/22 13:29:51;;;;;;;3.28;3.05;;;;;;;;;;5074533;28;20032;-23
2023/07/22 13:32:17;;;;;;;3.75;3.50;;;;;;;;;;5074486;28;20021;-23
2023/07/22 13:34:43;;;;;;;3.30;3.10;;;;;;;;;;5074797;28;20400;-22
2023/07/22 13:37:10;;;;;;;3.22;3.03;;;;;;;;;;5074372;28;20162;-23
2023/07/22 13:39:36;;;;;;;3.50;3.30;;;;;;;;;;5074532;28;20153;-22
2023/07/22 13:42:02;;;;;;;3.30;3.10;;;;;;;;;;5056906;28;20111;-22
2023/07/22 13:44:28;;;;;;;3.80;3.50;;;;;;;;;;5074470;28;20129;-22
2023/07/22 13:46:54;;;;;;;3.50;3.30;;;;;;;;;;5074677;28;20032;-24
2023/07/22 13:49:20;;;;;;;3.13;2.92;;;;;;;;;;5074323;28;20096;-22
2023/07/22 13:51:46;;;;;;;2.78;2.67;;;;;;;;;;5074479;28;20046;-22
2023/07/22 13:54:12;;;;;;;5.55;3.22;;;;;;;;;;5074564;28;20032;-22
2023/07/22 13:56:39;;;;;;;3.20;3.00;;;;;;;;;;5074469;28;20017;-22
2023/07/22 13:59:05;;;;;;;2.97;2.85;;;;;;;;;;5074562;28;20033;-24
2023/07/22 14:01:31;;;;;;;3.08;2.88;;;;;;;;;;5074287;28;20021;-22
2023/07/22 14:03:57;;;;;;;3.97;3.70;;;;;;;;;;5074699;28;20035;-22
2023/07/22 14:06:23;;;;;;;4.15;2.95;;;;;;;;;;5074737;28;20044;-22
2023/07/22 14:08:50;;;;;;;3.00;2.80;;;;;;;;;;5073924;28;20052;-23
2023/07/22 14:11:16;;;;;;;3.35;3.15;;;;;;;;;;5074498;28;20111;-22
2023/07/22 14:13:42;;;;;;;3.42;3.22;;;;;;;;;;5074157;28;20021;-22
2023/07/22 14:16:08;;;;;;;3.55;3.35;;;;;;;;;;5074104;28;20056;-23
2023/07/22 14:18:34;;;;;;;4.22;3.92;;;;;;;;;;5074084;28;20087;-21
2023/07/22 14:21:00;;;;;;;3.70;3.50;;;;;;;;;;5073982;28;20024;-24
2023/07/22 14:23:26;;;;;;;3.70;3.50;;;;;;;;;;5074272;28;20163;-23
2023/07/22 14:25:52;;;;;;;3.85;2.97;;;;;;;;;;5073957;28;20024;-27
2023/07/22 14:28:19;;;;;;;2.60;2.50;;;;;;;;;;5073945;28;20039;-23
2023/07/22 14:30:45;;;;;;;3.38;3.17;;;;;;;;;;5074082;28;20058;-24
2023/07/22 14:33:12;;;;;;;3.85;3.65;;;;;;;;;;5075996;28;20043;-22
2023/07/22 14:35:38;;;;;;;3.20;3.00;;;;;;;;;;5077965;28;20351;-23
2023/07/22 14:38:04;;;;;;;3.20;2.90;;;;;;;;;;5077618;28;20526;-23
2023/07/22 14:40:30;;;;;;;3.35;3.15;;;;;;;;;;5077895;28;20104;-21